createdAt,value
2022-08-30T00:01:41.312Z,89.17
2022-08-30T00:04:09.214Z,89.35
2022-08-30T00:06:35.799Z,89.32
2022-08-30T00:09:02.350Z,89.51
2022-08-30T00:11:28.898Z,89.31
2022-08-30T00:13:56.760Z,88.90
2022-08-30T00:16:24.350Z,88.87
2022-08-30T00:18:51.054Z,89.64
2022-08-30T00:21:19.980Z,90.19
2022-08-30T00:23:46.555Z,90.27
2022-08-30T00:26:13.251Z,90.54
2022-08-30T00:28:39.831Z,90.55
2022-08-30T00:31:06.797Z,91.16
2022-08-30T00:33:33.543Z,90.97
2022-08-30T00:36:00.112Z,91.13
2022-08-30T00:38:28.408Z,90.89
2022-08-30T00:40:55.184Z,90.81
2022-08-30T00:43:25.499Z,90.76
2022-08-30T00:45:55.733Z,89.95
2022-08-30T00:48:22.915Z,90.29
2022-08-30T00:50:54.249Z,90.02
2022-08-30T00:53:24.564Z,89.95
2022-08-30T00:55:53.798Z,89.69
2022-08-30T00:58:24.651Z,89.50
2022-08-30T01:00:54.641Z,89.56
2022-08-30T01:03:21.660Z,89.92
2022-08-30T01:05:49.411Z,89.34
2022-08-30T01:08:15.967Z,89.25
2022-08-30T01:10:43.279Z,89.55
2022-08-30T01:13:12.198Z,89.73
2022-08-30T01:15:38.871Z,89.95
2022-08-30T01:18:07.761Z,89.26
2022-08-30T01:20:43.373Z,88.70
2022-08-30T01:23:14.734Z,88.90
2022-08-30T01:25:43.480Z,88.91
2022-08-30T01:28:13.239Z,89.21
2022-08-30T01:30:40.119Z,89.29
2022-08-30T01:33:08.207Z,89.57
2022-08-30T01:35:46.071Z,89.50
2022-08-30T01:38:15.958Z,89.68
2022-08-30T01:40:42.681Z,90.32
2022-08-30T01:43:10.978Z,90.72
2022-08-30T01:45:37.616Z,90.95
2022-08-30T01:48:06.562Z,91.00
2022-08-30T01:50:33.651Z,91.10
2022-08-30T01:53:00.342Z,90.77
2022-08-30T01:55:28.314Z,90.85
2022-08-30T01:57:54.852Z,91.24
2022-08-30T02:00:21.644Z,91.27
2022-08-30T02:02:48.202Z,91.66
2022-08-30T02:05:14.900Z,91.61
2022-08-30T02:07:41.525Z,91.35
2022-08-30T02:10:08.911Z,90.97
2022-08-30T02:12:36.779Z,90.91
2022-08-30T02:15:03.760Z,90.59
2022-08-30T02:17:30.338Z,90.34
2022-08-30T02:19:56.842Z,90.59
2022-08-30T02:22:23.365Z,91.33
2022-08-30T02:24:49.894Z,91.46
2022-08-30T02:27:16.475Z,91.44
2022-08-30T02:29:45.031Z,91.00
2022-08-30T02:32:11.721Z,91.10
2022-08-30T02:34:38.226Z,91.20
2022-08-30T02:37:04.969Z,90.57
2022-08-30T02:39:31.466Z,90.80
2022-08-30T02:41:58.022Z,90.66
2022-08-30T02:44:24.635Z,89.82
2022-08-30T02:46:52.547Z,89.93
2022-08-30T02:49:34.693Z,89.56
2022-08-30T02:52:03.335Z,89.95
2022-08-30T02:54:29.875Z,90.67
2022-08-30T02:56:56.438Z,90.74
2022-08-30T02:59:22.994Z,90.37
2022-08-30T03:01:49.856Z,89.79
2022-08-30T03:04:17.835Z,89.67
2022-08-30T03:06:49.032Z,89.46
2022-08-30T03:09:15.588Z,89.48
2022-08-30T03:11:42.174Z,90.04
2022-08-30T03:14:08.720Z,90.60
2022-08-30T03:16:35.319Z,90.40
2022-08-30T03:19:01.852Z,90.21
2022-08-30T03:21:29.733Z,90.30
2022-08-30T03:23:56.312Z,90.87
2022-08-30T03:26:22.861Z,91.10
2022-08-30T03:28:49.416Z,91.31
2022-08-30T03:31:16.049Z,91.00
2022-08-30T03:33:42.679Z,90.69
2022-08-30T03:36:10.364Z,90.38
2022-08-30T03:38:39.050Z,90.28
2022-08-30T03:41:05.845Z,89.68
2022-08-30T03:43:34.628Z,89.83
2022-08-30T03:46:01.673Z,90.44
2022-08-30T03:48:28.376Z,90.62
2022-08-30T03:50:55.040Z,90.53
2022-08-30T03:53:21.876Z,90.46
2022-08-30T03:55:49.839Z,90.19
2022-08-30T03:58:19.188Z,90.01
2022-08-30T04:00:46.094Z,90.01
2022-08-30T04:03:12.809Z,89.99
2022-08-30T04:05:39.537Z,89.86
2022-08-30T04:08:06.388Z,89.87
2022-08-30T04:10:33.023Z,89.96
2022-08-30T04:13:00.914Z,90.32
2022-08-30T04:15:27.459Z,90.67
2022-08-30T04:17:54.055Z,90.54
2022-08-30T04:20:21.410Z,90.19
2022-08-30T04:22:47.981Z,90.34
2022-08-30T04:25:15.853Z,90.50
2022-08-30T04:27:42.907Z,90.14
2022-08-30T04:30:11.944Z,90.36
2022-08-30T04:32:38.564Z,90.48
2022-08-30T04:35:06.335Z,89.81
2022-08-30T04:37:32.902Z,89.87
2022-08-30T04:40:00.014Z,89.90
2022-08-30T04:42:26.940Z,89.97
2022-08-30T04:44:53.660Z,90.37
2022-08-30T04:47:21.577Z,90.67
2022-08-30T04:49:48.101Z,90.71
2022-08-30T04:52:14.878Z,90.38
2022-08-30T04:54:41.404Z,89.90
2022-08-30T04:57:08.006Z,90.69
2022-08-30T04:59:34.530Z,90.40
2022-08-30T05:02:01.150Z,90.10
2022-08-30T05:04:29.078Z,89.87
2022-08-30T05:06:55.739Z,90.65
2022-08-30T05:09:22.281Z,91.58
2022-08-30T05:11:48.890Z,91.44
2022-08-30T05:14:15.466Z,91.72
2022-08-30T05:16:42.728Z,91.45
2022-08-30T05:19:09.372Z,91.34
2022-08-30T05:21:37.327Z,90.71
2022-08-30T05:24:03.957Z,89.97
2022-08-30T05:26:33.570Z,90.03
2022-08-30T05:29:01.210Z,89.50
2022-08-30T05:31:30.572Z,89.45
2022-08-30T05:33:58.421Z,89.34
2022-08-30T05:36:26.834Z,89.76
2022-08-30T05:38:55.356Z,89.34
2022-08-30T05:41:24.993Z,88.92
2022-08-30T05:43:54.168Z,89.37
2022-08-30T05:46:20.888Z,89.06
2022-08-30T05:48:48.667Z,89.28
2022-08-30T05:51:17.507Z,89.68
2022-08-30T05:53:45.481Z,89.94
2022-08-30T05:56:15.584Z,88.97
2022-08-30T05:58:42.534Z,88.52
2022-08-30T06:01:19.278Z,88.87
2022-08-30T06:03:45.853Z,88.17
2022-08-30T06:06:12.390Z,86.57
2022-08-30T06:08:38.957Z,85.49
2022-08-30T06:11:05.634Z,86.46
2022-08-30T06:13:33.563Z,85.51
2022-08-30T06:16:00.173Z,85.17
2022-08-30T06:18:28.804Z,84.23
2022-08-30T06:20:55.514Z,83.44
2022-08-30T06:23:22.093Z,85.08
2022-08-30T06:25:48.839Z,85.39
2022-08-30T06:28:15.972Z,85.12
2022-08-30T06:30:43.969Z,85.95
2022-08-30T06:33:10.670Z,85.02
2022-08-30T06:35:42.315Z,83.96
2022-08-30T06:38:18.928Z,83.74
2022-08-30T06:40:45.583Z,84.13
2022-08-30T06:43:12.144Z,83.48
2022-08-30T06:45:38.699Z,82.67
2022-08-30T06:48:06.614Z,82.67
2022-08-30T06:50:33.198Z,83.17
2022-08-30T06:53:00.558Z,83.21
2022-08-30T06:55:27.520Z,83.14
2022-08-30T06:57:54.058Z,83.12
2022-08-30T07:00:20.808Z,81.46
2022-08-30T07:02:47.419Z,79.72
2022-08-30T07:05:18.608Z,78.67
2022-08-30T07:07:45.440Z,78.14
2022-08-30T07:10:12.063Z,77.38
2022-08-30T07:12:38.594Z,76.78
2022-08-30T07:15:06.140Z,77.20
2022-08-30T07:17:34.850Z,75.22
2022-08-30T07:20:02.423Z,75.03
2022-08-30T07:22:30.330Z,74.63
2022-08-30T07:24:56.894Z,74.91
2022-08-30T07:27:23.544Z,74.54
2022-08-30T07:29:50.318Z,74.19
2022-08-30T07:32:16.893Z,73.56
2022-08-30T07:34:43.524Z,74.55
2022-08-30T07:37:10.205Z,73.85
2022-08-30T07:39:48.082Z,73.57
2022-08-30T07:42:15.108Z,73.00
2022-08-30T07:44:41.677Z,73.11
2022-08-30T07:47:08.228Z,74.22
2022-08-30T07:49:34.826Z,74.11
2022-08-30T07:52:01.513Z,73.98
2022-08-30T07:54:28.083Z,72.91
2022-08-30T07:56:56.007Z,72.15
2022-08-30T07:59:22.766Z,71.70
2022-08-30T08:01:49.370Z,70.48
2022-08-30T08:04:16.011Z,71.00
2022-08-30T08:06:42.752Z,71.16
2022-08-30T08:09:09.520Z,69.91
2022-08-30T08:11:36.425Z,69.38
2022-08-30T08:14:04.716Z,68.96
2022-08-30T08:16:33.672Z,68.93
2022-08-30T08:19:00.379Z,68.45
2022-08-30T08:21:27.270Z,67.46
2022-08-30T08:23:54.139Z,68.28
2022-08-30T08:26:21.725Z,69.40
2022-08-30T08:28:48.321Z,69.21
2022-08-30T08:31:17.158Z,68.75
2022-08-30T08:33:44.272Z,69.93
2022-08-30T08:36:10.983Z,68.89
2022-08-30T08:38:37.855Z,69.15
2022-08-30T08:41:10.866Z,67.97
2022-08-30T08:43:37.627Z,66.82
2022-08-30T08:46:10.266Z,66.94
2022-08-30T08:48:59.518Z,65.81
2022-08-30T08:51:31.043Z,66.52
2022-08-30T08:54:02.523Z,65.79
2022-08-30T08:59:18.298Z,64.59
2022-08-30T09:01:46.914Z,63.20
2022-08-30T09:04:17.155Z,62.55
2022-08-30T09:06:53.532Z,62.07
2022-08-30T09:09:23.884Z,62.84
2022-08-30T09:11:50.415Z,62.43
2022-08-30T09:14:22.611Z,62.94
2022-08-30T09:16:53.478Z,62.62
2022-08-30T09:19:39.839Z,62.02
2022-08-30T09:22:16.282Z,60.46
2022-08-30T09:24:45.171Z,61.54
2022-08-30T09:27:24.354Z,61.00
2022-08-30T09:30:04.345Z,62.15
2022-08-30T09:32:35.417Z,62.65
2022-08-30T09:35:04.763Z,61.50
2022-08-30T09:37:36.395Z,61.45
2022-08-30T09:40:08.728Z,63.62
2022-08-30T09:42:35.333Z,61.84
2022-08-30T09:45:01.959Z,61.35
2022-08-30T09:47:31.586Z,60.86
2022-08-30T09:50:06.435Z,60.73
2022-08-30T09:52:42.301Z,59.88
2022-08-30T09:55:20.493Z,59.32
2022-08-30T09:57:56.983Z,59.46
2022-08-30T10:00:25.447Z,59.42
2022-08-30T10:03:02.060Z,57.77
2022-08-30T10:05:35.140Z,57.63
2022-08-30T10:08:12.787Z,57.74
2022-08-30T10:10:47.524Z,57.98
2022-08-30T10:13:36.916Z,57.38
2022-08-30T10:16:13.009Z,57.67
2022-08-30T10:18:51.098Z,58.56
2022-08-30T10:21:24.698Z,54.98
2022-08-30T10:23:57.322Z,54.53
2022-08-30T10:26:30.644Z,56.69
2022-08-30T10:29:03.167Z,54.72
2022-08-30T10:31:36.444Z,55.22
2022-08-30T10:34:06.586Z,54.49
2022-08-30T10:36:41.618Z,54.61
2022-08-30T10:39:10.325Z,54.27
2022-08-30T10:41:46.165Z,54.06
2022-08-30T10:44:20.230Z,53.67
2022-08-30T10:46:58.443Z,52.08
2022-08-30T10:49:28.538Z,51.05
2022-08-30T10:52:06.805Z,51.06
2022-08-30T10:54:40.542Z,51.47
2022-08-30T10:57:07.143Z,51.70
2022-08-30T10:59:38.604Z,53.27
2022-08-30T11:02:16.558Z,52.79
2022-08-30T11:05:07.820Z,53.54
2022-08-30T11:07:41.684Z,54.14
2022-08-30T11:10:26.454Z,50.73
2022-08-30T11:13:00.705Z,50.36
2022-08-30T11:15:30.972Z,50.28
2022-08-30T11:18:01.924Z,49.04
2022-08-30T11:20:34.578Z,48.62
2022-08-30T11:23:26.595Z,49.58
2022-08-30T11:25:57.881Z,48.45
2022-08-30T11:29:02.286Z,46.46
2022-08-30T11:31:37.552Z,46.46
2022-08-30T11:34:05.245Z,47.60
2022-08-30T11:37:09.560Z,47.08
2022-08-30T11:39:55.992Z,48.21
2022-08-30T11:42:29.966Z,49.24
2022-08-30T11:45:29.961Z,46.68
2022-08-30T11:47:59.410Z,48.50
2022-08-30T11:50:30.586Z,47.87
2022-08-30T11:53:05.398Z,48.05
2022-08-30T11:55:46.123Z,48.21
2022-08-30T11:58:33.201Z,46.23
2022-08-30T12:01:40.758Z,47.27
2022-08-30T12:04:09.155Z,48.26
2022-08-30T12:07:01.093Z,46.19
2022-08-30T12:10:00.930Z,43.73
2022-08-30T12:13:00.554Z,44.39
2022-08-30T12:15:56.639Z,44.83
2022-08-30T12:18:40.888Z,43.67
2022-08-30T12:21:23.743Z,43.42
2022-08-30T12:23:59.878Z,45.35
2022-08-30T12:26:34.222Z,44.72
2022-08-30T12:29:15.695Z,44.38
2022-08-30T12:31:45.166Z,45.13
2022-08-30T12:34:20.498Z,44.72
2022-08-30T12:36:55.124Z,47.12
2022-08-30T12:39:24.702Z,45.43
2022-08-30T12:41:51.431Z,45.71
2022-08-30T12:44:22.343Z,44.35
2022-08-30T12:46:54.904Z,45.44
2022-08-30T12:49:27.952Z,44.86
2022-08-30T12:51:55.915Z,42.78
2022-08-30T12:54:25.787Z,43.99
2022-08-30T12:57:14.020Z,44.05
2022-08-30T13:02:21.114Z,43.63
2022-08-30T13:04:49.538Z,42.99
2022-08-30T13:07:40.056Z,44.42
2022-08-30T13:10:15.035Z,41.79
2022-08-30T13:13:00.480Z,42.75
2022-08-30T13:15:32.728Z,42.89
2022-08-30T13:18:18.345Z,43.90
2022-08-30T13:21:26.340Z,43.38
2022-08-30T13:23:58.173Z,42.95
2022-08-30T13:26:26.134Z,44.46
2022-08-30T13:28:57.145Z,43.59
2022-08-30T13:31:26.098Z,41.56
2022-08-30T13:33:55.657Z,42.42
2022-08-30T13:36:28.054Z,40.26
2022-08-30T13:38:54.962Z,41.62
2022-08-30T13:41:21.900Z,43.15
2022-08-30T13:46:35.802Z,39.48
2022-08-30T13:49:43.210Z,38.59
2022-08-30T13:52:09.725Z,39.36
2022-08-30T13:54:40.238Z,37.29
2022-08-30T13:57:06.824Z,38.47
2022-08-30T13:59:33.361Z,36.88
2022-08-30T14:02:09.087Z,37.56
2022-08-30T14:04:39.439Z,37.06
2022-08-30T14:07:16.961Z,36.83
2022-08-30T14:09:47.237Z,35.92
2022-08-30T14:12:13.838Z,36.96
2022-08-30T14:14:43.033Z,34.89
2022-08-30T14:17:10.690Z,36.90
2022-08-30T14:19:40.451Z,35.03
2022-08-30T14:22:06.981Z,35.33
2022-08-30T14:24:34.751Z,35.66
2022-08-30T14:27:01.290Z,35.34
2022-08-30T14:29:28.455Z,35.24
2022-08-30T14:31:55.309Z,35.72
2022-08-30T14:34:22.027Z,34.42
2022-08-30T14:36:49.976Z,34.00
2022-08-30T14:39:21.323Z,32.55
2022-08-30T14:41:50.529Z,32.78
2022-08-30T14:44:18.183Z,32.50
2022-08-30T14:46:44.980Z,32.96
2022-08-30T14:49:11.994Z,32.39
2022-08-30T14:51:39.115Z,33.08
2022-08-30T14:54:07.549Z,33.44
2022-08-30T14:56:34.598Z,34.44
2022-08-30T14:59:01.214Z,34.49
2022-08-30T15:01:29.173Z,34.13
2022-08-30T15:03:57.203Z,35.67
2022-08-30T15:06:26.344Z,33.91
2022-08-30T15:08:53.955Z,34.74
2022-08-30T15:11:23.122Z,34.74
2022-08-30T15:13:52.942Z,35.56
2022-08-30T15:16:22.601Z,35.70
2022-08-30T15:18:49.608Z,37.39
2022-08-30T15:21:50.357Z,35.88
2022-08-30T15:24:19.409Z,36.50
2022-08-30T15:26:51.572Z,38.15
2022-08-30T15:29:19.491Z,38.88
2022-08-30T15:31:49.944Z,38.60
2022-08-30T15:34:18.761Z,37.94
2022-08-30T15:36:46.050Z,38.14
2022-08-30T15:39:15.472Z,39.12
2022-08-30T15:41:44.309Z,37.84
2022-08-30T15:44:11.739Z,38.29
2022-08-30T15:46:39.969Z,37.49
2022-08-30T15:49:11.650Z,38.65
2022-08-30T15:51:41.408Z,38.32
2022-08-30T15:54:09.925Z,37.92
2022-08-30T15:56:41.813Z,39.23
2022-08-30T15:59:09.050Z,38.51
2022-08-30T16:01:36.386Z,39.09
2022-08-30T16:04:03.830Z,38.33
2022-08-30T16:06:34.660Z,37.07
2022-08-30T16:09:01.435Z,37.28
2022-08-30T16:11:28.138Z,38.46
2022-08-30T16:13:56.898Z,40.15
2022-08-30T16:16:23.960Z,39.69
2022-08-30T16:18:54.148Z,38.08
2022-08-30T16:21:25.163Z,41.90
2022-08-30T16:23:54.611Z,43.73
2022-08-30T16:26:21.237Z,44.52
2022-08-30T16:28:49.231Z,44.27
2022-08-30T16:31:18.190Z,43.86
2022-08-30T16:33:45.920Z,47.68
2022-08-30T16:36:13.507Z,46.89
2022-08-30T16:38:40.663Z,47.53
2022-08-30T16:41:09.961Z,46.70
2022-08-30T16:43:38.884Z,47.78
2022-08-30T16:46:09.156Z,48.86
2022-08-30T16:48:39.416Z,48.18
2022-08-30T16:51:09.048Z,48.03
2022-08-30T16:53:36.561Z,47.29
2022-08-30T16:56:05.491Z,48.43
2022-08-30T16:58:32.178Z,49.26
2022-08-30T17:00:58.769Z,50.85
2022-08-30T17:03:26.527Z,50.25
2022-08-30T17:05:54.716Z,50.47
2022-08-30T17:08:23.855Z,51.03
2022-08-30T17:10:50.433Z,51.56
2022-08-30T17:13:17.031Z,51.31
2022-08-30T17:15:43.628Z,51.70
2022-08-30T17:18:10.260Z,51.40
2022-08-30T17:20:36.809Z,51.80
2022-08-30T17:23:05.076Z,51.73
2022-08-30T17:25:34.063Z,52.23
2022-08-30T17:28:00.888Z,52.26
2022-08-30T17:30:27.428Z,52.56
2022-08-30T17:32:54.162Z,52.78
2022-08-30T17:35:22.173Z,53.12
2022-08-30T17:37:49.266Z,53.47
2022-08-30T17:40:20.164Z,53.67
2022-08-30T17:42:46.795Z,54.91
2022-08-30T17:45:16.409Z,56.52
2022-08-30T17:47:43.489Z,56.01
2022-08-30T17:50:11.248Z,57.12
2022-08-30T17:52:38.383Z,56.36
2022-08-30T17:55:07.464Z,56.53
2022-08-30T17:57:35.806Z,58.43
2022-08-30T18:00:04.444Z,59.41
2022-08-30T18:02:31.261Z,61.14
2022-08-30T18:04:59.089Z,62.40
2022-08-30T18:07:26.157Z,62.89
2022-08-30T18:09:53.527Z,62.75
2022-08-30T18:12:20.675Z,62.26
2022-08-30T18:14:52.864Z,61.13
2022-08-30T18:17:19.814Z,60.93
2022-08-30T18:19:46.863Z,63.21
2022-08-30T18:22:14.366Z,61.76
2022-08-30T18:24:40.920Z,63.28
2022-08-30T18:27:07.548Z,63.82
2022-08-30T18:29:36.851Z,63.88
2022-08-30T18:32:06.049Z,64.98
2022-08-30T18:34:35.612Z,65.21
2022-08-30T18:37:02.457Z,65.02
2022-08-30T18:39:34.464Z,65.68
2022-08-30T18:42:01.947Z,66.22
2022-08-30T18:44:33.152Z,66.42
2022-08-30T18:47:01.887Z,66.35
2022-08-30T18:49:33.544Z,66.65
2022-08-30T18:52:00.419Z,67.12
2022-08-30T18:54:27.999Z,67.59
2022-08-30T18:56:54.744Z,67.90
2022-08-30T18:59:21.447Z,68.27
2022-08-30T19:01:49.646Z,68.07
2022-08-30T19:04:22.434Z,68.49
2022-08-30T19:06:58.510Z,68.58
2022-08-30T19:09:26.612Z,69.02
2022-08-30T19:11:53.298Z,69.44
2022-08-30T19:14:19.867Z,68.82
2022-08-30T19:16:47.947Z,69.82
2022-08-30T19:19:14.507Z,70.21
2022-08-30T19:21:41.064Z,70.58
2022-08-30T19:24:09.207Z,70.38
2022-08-30T19:26:36.080Z,71.19
2022-08-30T19:29:03.231Z,71.81
2022-08-30T19:31:29.818Z,71.86
2022-08-30T19:33:56.548Z,71.50
2022-08-30T19:36:24.044Z,72.50
2022-08-30T19:38:51.859Z,72.48
2022-08-30T19:41:23.389Z,72.99
2022-08-30T19:43:51.257Z,73.34
2022-08-30T19:46:17.845Z,73.48
2022-08-30T19:48:44.415Z,73.78
2022-08-30T19:51:11.816Z,73.75
2022-08-30T19:53:41.413Z,74.19
2022-08-30T19:56:07.985Z,74.93
2022-08-30T19:58:36.219Z,74.78
2022-08-30T20:03:51.967Z,74.80
2022-08-30T20:06:19.858Z,75.42
2022-08-30T20:08:46.855Z,76.36
2022-08-30T20:11:14.088Z,76.00
2022-08-30T20:13:42.032Z,76.27
2022-08-30T20:16:10.636Z,76.61
2022-08-30T20:18:37.478Z,76.60
2022-08-30T20:21:04.841Z,76.03
2022-08-30T20:23:40.310Z,76.64
2022-08-30T20:26:07.294Z,77.14
2022-08-30T20:28:33.935Z,76.97
2022-08-30T20:31:04.476Z,77.54
2022-08-30T20:33:31.447Z,77.89
2022-08-30T20:36:00.723Z,77.51
2022-08-30T20:38:27.308Z,76.61
2022-08-30T20:40:55.822Z,76.73
2022-08-30T20:43:25.027Z,76.92
2022-08-30T20:45:51.646Z,77.47
2022-08-30T20:48:19.778Z,77.73
2022-08-30T20:50:46.480Z,77.50
2022-08-30T20:53:13.742Z,78.45
2022-08-30T20:55:41.119Z,78.83
2022-08-30T20:58:07.763Z,78.29
2022-08-30T21:00:34.342Z,78.68
2022-08-30T21:03:01.054Z,78.29
2022-08-30T21:05:29.122Z,77.51
2022-08-30T21:07:55.767Z,78.87
2022-08-30T21:10:23.456Z,78.37
2022-08-30T21:12:50.215Z,78.90
2022-08-30T21:15:36.173Z,79.57
2022-08-30T21:18:03.566Z,79.17
2022-08-30T21:20:31.498Z,79.36
2022-08-30T21:22:58.068Z,79.61
2022-08-30T21:25:24.777Z,79.83
2022-08-30T21:27:51.309Z,79.32
2022-08-30T21:30:18.071Z,79.46
2022-08-30T21:32:44.714Z,79.80
2022-08-30T21:35:11.303Z,79.94
2022-08-30T21:37:39.196Z,79.91
2022-08-30T21:40:06.784Z,80.01
2022-08-30T21:42:33.323Z,79.76
2022-08-30T21:44:59.856Z,80.10
2022-08-30T21:47:26.406Z,80.10
2022-08-30T21:49:52.956Z,79.85
2022-08-30T21:52:19.477Z,80.95
2022-08-30T21:54:47.368Z,80.28
2022-08-30T21:57:13.952Z,80.48
2022-08-30T21:59:40.508Z,80.96
2022-08-30T22:02:07.048Z,80.80
2022-08-30T22:04:33.594Z,80.71
2022-08-30T22:07:00.142Z,81.30
2022-08-30T22:09:26.722Z,81.03
2022-08-30T22:11:54.849Z,80.93
2022-08-30T22:14:22.441Z,81.43
2022-08-30T22:16:49.032Z,79.75
2022-08-30T22:19:19.799Z,80.77
2022-08-30T22:21:49.058Z,81.05
2022-08-30T22:24:15.925Z,80.58
2022-08-30T22:26:43.309Z,80.83
2022-08-30T22:29:11.935Z,79.75
2022-08-30T22:31:41.362Z,81.11
2022-08-30T22:34:08.912Z,81.05
2022-08-30T22:36:36.836Z,81.38
2022-08-30T22:39:06.211Z,80.55
2022-08-30T22:41:33.564Z,79.92
2022-08-30T22:44:00.785Z,79.26
2022-08-30T22:46:34.356Z,78.39
2022-08-30T22:49:02.123Z,77.63
2022-08-30T22:51:28.836Z,77.35
2022-08-30T22:53:55.410Z,76.52
2022-08-30T22:56:23.729Z,75.76
2022-08-30T22:58:50.335Z,75.56
2022-08-30T23:01:22.593Z,75.55
2022-08-30T23:03:51.783Z,75.72
2022-08-30T23:06:18.785Z,75.36
2022-08-30T23:08:45.897Z,75.73
2022-08-30T23:11:14.164Z,75.92
2022-08-30T23:13:41.956Z,76.80
2022-08-30T23:16:10.112Z,76.25
2022-08-30T23:18:38.862Z,76.57
2022-08-30T23:21:10.962Z,75.84
2022-08-30T23:23:38.128Z,75.67
2022-08-30T23:26:04.919Z,76.58
2022-08-30T23:28:31.439Z,76.25
2022-08-30T23:31:08.164Z,76.53
2022-08-30T23:33:34.674Z,76.50
2022-08-30T23:36:08.474Z,77.67
2022-08-30T23:38:35.158Z,77.45
2022-08-30T23:41:01.738Z,77.70
2022-08-30T23:43:28.294Z,77.73
2022-08-30T23:45:55.528Z,77.72
2022-08-30T23:48:22.150Z,77.75
2022-08-30T23:50:48.727Z,77.59
2022-08-30T23:53:16.736Z,77.71
2022-08-30T23:55:43.406Z,77.92
2022-08-30T23:58:10.011Z,78.61
